Terminal Aerodrome Forecast
Issued by NWS

Home | Current Version | Previous Version | Graphics & Text | Print | Product List | Glossary Off
Versions: 1 2 3 4 5 6 7 8 9 10 11 12 13 14 15 16 17 18 19 20

000
FTUS43 KGRB 202300
TAFCWA
TAF
KCWA 202329Z 2100/2124 30008KT P6SM SCT035
      TEMPO 2100/2102 BKN035
     FM210300 28004KT P6SM SKC
     FM211600 19010KT P6SM SCT090 SCT150
     FM212100 17012KT P6SM SCT070 SCT120 WS015/21030KT
      AMD LTD TO CLD VIS AND WIND 2103/2111=

USA.gov is the U.S. government's official web portal to all federal, state and local government web resources and services.